Time;durP1;ratioP1;P1;durP2;ratioP2;P2;SDS_P1;SDS_P2;PMS_P1;PMS_P2;Temp;Humidity;BMP_temperature;BMP_pressure;BME280_temperature;BME280_humidity;BME280_pressure;Samples;Min_cycle;Max_cycle;Signal;HPM_P1;HPM_P2
2022/03/20 00:03:45;;;;;;;3.50;1.27;;;;;;;5.60;66.04;103435.97;10448968;28;20091;-73
2022/03/20 00:08:45;;;;;;;2.08;1.70;;;;;;;5.51;66.68;103437.44;10447216;28;20065;-74
2022/03/20 00:13:46;;;;;;;10.52;2.70;;;;;;;5.43;67.95;103430.84;10435071;28;20029;-73
2022/03/20 00:18:46;;;;;;;3.40;2.22;;;;;;;5.40;68.29;103431.91;10428773;28;20072;-72
2022/03/20 00:23:47;;;;;;;4.63;3.25;;;;;;;5.31;68.46;103425.31;10420896;28;20167;-73
2022/03/20 00:28:47;;;;;;;2.65;2.28;;;;;;;5.27;68.58;103422.94;10420315;28;20534;-73
2022/03/20 00:33:47;;;;;;;4.45;4.07;;;;;;;5.09;69.30;103406.19;10418125;28;20083;-73
2022/03/20 00:38:48;;;;;;;4.65;2.67;;;;;;;4.86;69.85;103402.31;10418374;28;20410;-73
2022/03/20 00:43:48;;;;;;;7.60;3.40;;;;;;;4.69;73.06;103406.09;10385040;28;20132;-72
2022/03/20 00:48:49;;;;;;;5.40;3.95;;;;;;;4.68;73.14;103392.75;10417450;28;20081;-73
2022/03/20 00:53:49;;;;;;;3.95;2.83;;;;;;;4.66;75.15;103395.56;10417529;28;20120;-73
2022/03/20 00:58:49;;;;;;;9.00;5.40;;;;;;;4.70;74.63;103388.16;10418388;28;20037;-74
2022/03/20 01:03:51;;;;;;;6.03;3.92;;;;;;;4.70;76.19;103377.44;10400590;28;20033;-73
2022/03/20 01:08:54;;;;;;;6.30;4.18;;;;;;;4.65;76.86;103377.69;10417847;28;20040;-73
2022/03/20 01:13:55;;;;;;;6.32;4.65;;;;;;;4.57;78.03;103369.28;10416678;28;20470;-72
2022/03/20 01:18:56;;;;;;;6.68;3.35;;;;;;;4.52;78.85;103357.97;10416564;28;20029;-74
2022/03/20 01:23:56;;;;;;;4.28;3.88;;;;;;;4.48;79.34;103345.72;10398736;28;20436;-72
2022/03/20 01:28:57;;;;;;;5.85;5.25;;;;;;;4.46;80.00;103336.91;10399292;28;20041;-73
2022/03/20 01:33:58;;;;;;;12.80;4.63;;;;;;;4.49;80.45;103329.50;10416374;28;20385;-73
2022/03/20 01:38:58;;;;;;;15.68;5.70;;;;;;;4.44;81.15;103320.91;10415674;28;20443;-73
2022/03/20 01:43:59;;;;;;;6.47;5.07;;;;;;;4.41;81.51;103311.25;10398550;28;20029;-72
2022/03/20 01:49:00;;;;;;;6.97;6.25;;;;;;;4.38;80.89;103295.34;10417278;28;20481;-73
2022/03/20 01:54:00;;;;;;;8.93;5.15;;;;;;;4.38;81.62;103303.38;10415554;28;20065;-72
2022/03/20 01:59:03;;;;;;;14.20;6.43;;;;;;;4.40;81.46;103285.38;10415492;28;20068;-74
2022/03/20 02:04:03;;;;;;;8.02;7.22;;;;;;;4.29;81.59;103276.28;10415019;28;20103;-73
2022/03/20 02:09:04;;;;;;;10.82;8.18;;;;;;;4.32;81.63;103276.09;10398060;28;20083;-73
2022/03/20 02:14:04;;;;;;;8.27;6.70;;;;;;;4.31;81.27;103277.06;10415511;28;20029;-73
2022/03/20 02:19:08;;;;;;;14.48;7.80;;;;;;;4.28;81.37;103269.22;10407412;28;20445;-72
2022/03/20 02:24:31;;;;;;;12.55;8.88;;;;;;;4.21;81.41;103260.66;10414564;28;20128;-75
2022/03/20 02:29:31;;;;;;;9.93;6.72;;;;;;;4.12;82.23;103261.28;10413410;28;20136;-73
2022/03/20 02:34:32;;;;;;;13.85;9.82;;;;;;;4.11;81.92;103244.31;10413544;28;20430;-73
2022/03/20 02:39:32;;;;;;;12.93;9.48;;;;;;;4.05;82.25;103246.50;10414921;28;20057;-72
2022/03/20 02:44:55;;;;;;;11.65;9.30;;;;;;;3.97;82.53;103247.88;10396263;28;20311;-71
2022/03/20 02:50:00;;;;;;;11.05;9.48;;;;;;;3.96;82.45;103235.44;10414013;28;20041;-73
2022/03/20 02:55:01;;;;;;;10.75;9.05;;;;;;;3.93;82.11;103230.25;10413683;28;20041;-72
2022/03/20 03:00:04;;;;;;;13.98;10.43;;;;;;;3.87;83.20;103224.44;10412810;28;20036;-73
2022/03/20 03:05:04;;;;;;;13.63;9.65;;;;;;;3.80;83.47;103218.59;10415147;28;20051;-72
2022/03/20 03:15:24;;;;;;;15.80;11.20;;;;;;;3.75;83.96;103201.94;10413226;28;20501;-73
2022/03/20 03:20:25;;;;;;;12.60;10.30;;;;;;;3.69;84.27;103199.63;10414830;28;20029;-72
2022/03/20 03:25:25;;;;;;;15.05;9.73;;;;;;;3.58;85.66;103194.09;10412316;28;20120;-72
2022/03/20 03:30:26;;;;;;;17.98;10.77;;;;;;;3.54;86.37;103200.59;10412813;28;20037;-72
2022/03/20 03:35:41;;;;;;;14.05;9.45;;;;;;;3.53;87.05;103190.84;10429886;28;20586;-73
2022/03/20 03:40:43;;;;;;;10.10;8.52;;;;;;;3.50;87.70;103194.56;10415503;28;20033;-74
2022/03/20 03:45:44;;;;;;;16.77;10.30;;;;;;;3.47;88.30;103189.38;10414327;28;20405;-73
2022/03/20 03:50:45;;;;;;;14.10;10.02;;;;;;;3.37;89.26;103175.72;10429065;28;20045;-75
2022/03/20 03:55:45;;;;;;;14.45;9.65;;;;;;;3.33;89.26;103163.47;10379821;28;20096;-73
2022/03/20 04:00:46;;;;;;;9.40;8.02;;;;;;;3.28;90.00;103159.34;10414093;28;20033;-72
2022/03/20 04:05:47;;;;;;;11.52;7.65;;;;;;;3.25;90.06;103149.69;10413521;28;20438;-73
2022/03/20 04:10:47;;;;;;;8.27;7.45;;;;;;;3.15;90.78;103136.00;10419744;28;20037;-72
2022/03/20 04:15:47;;;;;;;12.15;9.25;;;;;;;3.12;91.21;103129.97;10403186;28;20381;-73
2022/03/20 04:20:48;;;;;;;15.25;9.65;;;;;;;3.06;90.82;103115.13;10419466;28;20038;-72
2022/03/20 04:25:48;;;;;;;16.15;9.15;;;;;;;2.99;90.65;103103.94;10402231;28;20056;-73
2022/03/20 04:30:49;;;;;;;10.05;7.82;;;;;;;2.98;90.97;103099.56;10420000;28;20045;-73
2022/03/20 04:35:49;;;;;;;16.27;10.52;;;;;;;3.00;90.77;103086.97;10421194;28;20124;-72
2022/03/20 04:40:49;;;;;;;12.63;9.23;;;;;;;2.94;90.72;103099.84;10402317;28;20037;-75
2022/03/20 04:45:51;;;;;;;13.98;11.38;;;;;;;2.86;91.11;103092.28;10417528;28;20163;-73
2022/03/20 05:01:29;;;;;;;15.90;10.02;;;;;;;2.80;90.56;103060.53;10418151;28;20033;-72
2022/03/20 05:06:30;;;;;;;13.75;11.07;;;;;;;2.81;90.12;103062.28;10418465;28;20037;-72
2022/03/20 05:16:50;;;;;;;13.20;9.32;;;;;;;2.75;89.93;103062.66;10417515;28;20034;-74
2022/03/20 05:21:50;;;;;;;10.90;8.82;;;;;;;2.70;90.05;103046.88;10417260;28;20060;-75
2022/03/20 05:26:51;;;;;;;24.73;10.57;;;;;;;2.67;90.33;103048.88;10418096;28;20033;-73
2022/03/20 05:31:53;;;;;;;20.83;12.85;;;;;;;2.68;89.29;103021.16;10418401;28;20030;-72
2022/03/20 05:36:56;;;;;;;14.10;9.27;;;;;;;2.68;89.41;103015.81;10418842;28;20053;-73
2022/03/20 05:41:56;;;;;;;18.15;11.68;;;;;;;2.68;88.92;103007.78;10418245;28;20084;-74
2022/03/20 05:46:58;;;;;;;21.75;11.38;;;;;;;2.63;89.09;103000.06;10418605;28;20111;-72
2022/03/20 05:51:59;;;;;;;11.88;10.75;;;;;;;2.64;88.67;102992.88;10415623;28;20037;-73
2022/03/20 06:02:18;;;;;;;13.10;11.70;;;;;;;2.64;87.75;103001.75;10416099;28;20041;-73
2022/03/20 06:07:18;;;;;;;12.98;10.57;;;;;;;2.71;87.41;102988.88;10416186;28;20465;-73
2022/03/20 06:12:18;;;;;;;14.23;10.18;;;;;;;2.75;86.64;102977.03;10398003;28;20065;-71
2022/03/20 06:17:20;;;;;;;25.60;13.27;;;;;;;2.89;86.18;102979.69;10414499;28;20398;-73
2022/03/20 06:22:20;;;;;;;12.23;10.90;;;;;;;2.98;85.41;102973.78;10416406;28;20120;-73
2022/03/20 06:27:21;;;;;;;16.10;12.75;;;;;;;3.11;85.21;102973.84;10415049;28;20034;-73
2022/03/20 06:32:21;;;;;;;21.40;12.80;;;;;;;3.24;83.60;102958.72;10412846;28;20092;-73
2022/03/20 06:37:22;;;;;;;17.83;13.30;;;;;;;3.31;83.53;102969.88;10414051;28;20033;-73
2022/03/20 06:42:22;;;;;;;17.02;11.45;;;;;;;3.43;82.57;102974.44;10415057;28;20040;-73
2022/03/20 06:47:24;;;;;;;17.25;11.70;;;;;;;3.53;81.20;102968.50;10417271;28;20057;-72
2022/03/20 06:52:28;;;;;;;22.45;13.60;;;;;;;3.70;80.38;102966.44;10417520;28;20074;-73
2022/03/20 06:57:28;;;;;;;15.00;11.63;;;;;;;3.99;78.43;102949.34;10413966;28;20389;-73
2022/03/20 07:02:29;;;;;;;15.80;12.10;;;;;;;4.82;76.08;102952.50;10412654;28;20029;-72
2022/03/20 07:07:29;;;;;;;15.18;11.60;;;;;;;5.56;71.69;102939.91;10415016;28;20045;-73
2022/03/20 07:12:29;;;;;;;15.10;10.35;;;;;;;6.08;69.11;102952.13;10429027;28;20535;-73
2022/03/20 07:17:30;;;;;;;20.92;11.70;;;;;;;6.41;66.92;102928.97;10413581;28;20061;-73
2022/03/20 07:22:31;;;;;;;13.70;12.10;;;;;;;6.49;66.12;102934.59;10414366;28;20532;-73
2022/03/20 07:32:50;;;;;;;15.13;11.45;;;;;;;7.02;63.51;102915.13;10414077;28;20101;-72
2022/03/20 07:37:51;;;;;;;18.45;11.02;;;;;;;7.22;63.28;102895.50;10414012;28;20037;-73
2022/03/20 07:42:52;;;;;;;16.85;11.65;;;;;;;7.28;63.02;102899.53;10417826;28;20040;-74
2022/03/20 07:47:52;;;;;;;22.63;14.25;;;;;;;7.52;61.91;102885.84;10420259;28;20493;-74
2022/03/20 07:52:52;;;;;;;19.90;12.70;;;;;;;7.63;61.16;102881.25;10420807;28;20034;-73
2022/03/20 07:57:53;;;;;;;19.65;11.95;;;;;;;6.70;62.32;102879.06;10421762;28;20124;-74
2022/03/20 08:02:54;;;;;;;22.08;13.02;;;;;;;6.48;62.93;102868.31;10436417;28;20068;-73
2022/03/20 08:07:54;;;;;;;21.10;11.93;;;;;;;5.98;64.30;102865.06;10419843;28;20030;-74
2022/03/20 08:12:55;;;;;;;21.08;14.15;;;;;;;6.58;63.11;102853.13;10403172;28;20041;-72
2022/03/20 08:17:55;;;;;;;14.20;12.65;;;;;;;6.35;63.87;102844.22;10420229;28;20039;-72
2022/03/20 08:22:56;;;;;;;15.80;11.65;;;;;;;6.04;64.97;102846.63;10418786;28;20544;-72
2022/03/20 08:27:57;;;;;;;21.52;14.07;;;;;;;5.86;63.86;102844.47;10420235;28;20041;-72
2022/03/20 08:32:57;;;;;;;15.70;13.52;;;;;;;5.64;63.74;102846.13;10420429;28;20045;-72
2022/03/20 08:37:58;;;;;;;18.98;11.73;;;;;;;5.53;63.73;102828.13;10356543;28;20112;-74
2022/03/20 08:42:59;;;;;;;25.95;11.90;;;;;;;5.53;63.21;102838.88;10431265;28;20445;-74
2022/03/20 08:48:00;;;;;;;15.55;12.07;;;;;;;5.47;62.60;102849.25;10420225;28;20140;-73
2022/03/20 08:53:01;;;;;;;19.05;13.68;;;;;;;5.73;61.54;102844.56;10433510;28;20369;-73
2022/03/20 08:58:01;;;;;;;20.50;13.52;;;;;;;5.52;61.42;102829.13;10418465;28;20045;-73
2022/03/20 09:03:02;;;;;;;19.77;14.73;;;;;;;5.45;62.26;102821.63;10419332;28;20025;-72
2022/03/20 09:08:02;;;;;;;20.25;11.95;;;;;;;5.46;61.62;102800.03;10419385;28;20101;-73
2022/03/20 09:13:03;;;;;;;15.77;14.15;;;;;;;5.51;62.07;102808.56;10418259;28;20128;-72
2022/03/20 09:23:22;;;;;;;25.10;14.70;;;;;;;5.53;63.06;102805.78;10418403;28;20477;-70
2022/03/20 09:28:22;;;;;;;17.38;13.50;;;;;;;5.56;61.18;102806.41;10416189;28;20033;-72
2022/03/20 09:33:25;;;;;;;22.52;13.77;;;;;;;5.66;60.29;102801.19;10398998;28;20477;-72
2022/03/20 09:38:26;;;;;;;23.05;15.35;;;;;;;5.61;60.08;102816.78;10418036;28;20378;-72
2022/03/20 09:43:26;;;;;;;21.00;12.70;;;;;;;5.55;60.77;102812.75;10416931;28;20032;-73
2022/03/20 09:48:27;;;;;;;23.30;14.93;;;;;;;5.52;60.82;102804.06;10415598;28;20054;-73
2022/03/20 09:53:27;;;;;;;19.45;13.13;;;;;;;5.59;60.29;102789.19;10415210;28;20037;-72
2022/03/20 09:58:28;;;;;;;23.13;11.95;;;;;;;5.60;62.25;102817.78;10430599;28;20481;-72
2022/03/20 10:03:29;;;;;;;26.67;17.70;;;;;;;5.68;61.90;102815.38;10412859;28;20029;-72
2022/03/20 10:08:29;;;;;;;25.27;13.27;;;;;;;5.68;61.90;102804.59;10415469;28;20034;-72
2022/03/20 10:13:29;;;;;;;20.92;16.08;;;;;;;5.62;62.61;102807.78;10415609;28;20389;-72
2022/03/20 10:18:30;;;;;;;26.95;19.92;;;;;;;5.21;67.63;102810.94;10415701;28;20045;-72
2022/03/20 10:23:41;;;;;;;27.77;18.95;;;;;;;4.18;74.99;102811.25;10397837;28;20392;-72
2022/03/20 10:28:43;;;;;;;27.15;17.27;;;;;;;4.03;74.67;102795.38;10399590;28;20564;-72
2022/03/20 10:33:46;;;;;;;21.88;17.25;;;;;;;4.05;78.00;102778.22;10415852;28;20033;-72
2022/03/20 10:38:48;;;;;;;37.03;21.92;;;;;;;4.78;77.55;102782.75;10415060;28;20147;-72
2022/03/20 10:43:51;;;;;;;27.08;19.23;;;;;;;5.75;75.10;102757.44;10414927;28;20026;-72
2022/03/20 10:48:56;;;;;;;30.10;20.90;;;;;;;7.08;70.57;102723.34;10413648;28;20050;-71
2022/03/20 10:54:00;;;;;;;29.67;19.67;;;;;;;7.07;69.50;102719.81;10414614;28;20106;-73
2022/03/20 10:59:16;;;;;;;25.67;19.48;;;;;;;7.03;66.80;102720.22;10414621;28;20053;-72
2022/03/20 11:04:17;;;;;;;33.80;19.52;;;;;;;7.11;66.68;102718.56;10413898;28;20588;-73
2022/03/20 11:09:17;;;;;;;33.38;20.70;;;;;;;6.90;68.31;102747.31;10429657;28;20103;-73
2022/03/20 11:14:22;;;;;;;29.13;18.63;;;;;;;6.94;67.16;102743.38;10413722;28;20052;-73
2022/03/20 11:19:23;;;;;;;34.15;19.63;;;;;;;6.64;69.87;102744.97;10421704;28;20037;-72
2022/03/20 11:24:24;;;;;;;30.25;21.55;;;;;;;6.36;71.08;102759.81;10441317;28;20045;-73
2022/03/20 11:29:24;;;;;;;38.00;19.98;;;;;;;6.62;70.56;102751.44;10421962;28;20060;-73
2022/03/20 11:34:25;;;;;;;26.77;20.65;;;;;;;7.68;67.92;102746.03;10420428;28;20144;-73
2022/03/20 11:39:25;;;;;;;32.45;19.05;;;;;;;8.51;66.28;102733.31;10438244;28;20039;-72
2022/03/20 11:44:26;;;;;;;24.70;18.33;;;;;;;9.07;64.26;102738.09;10422658;28;20041;-72
2022/03/20 11:49:29;;;;;;;28.48;18.33;;;;;;;9.21;60.32;102725.97;10420487;28;20397;-73
2022/03/20 11:54:31;;;;;;;27.52;18.70;;;;;;;9.22;59.25;102722.25;10420048;28;20442;-73
2022/03/20 11:59:44;;;;;;;25.33;19.45;;;;;;;9.40;58.33;102722.41;10420966;28;20462;-72
2022/03/20 12:04:58;;;;;;;21.42;16.40;;;;;;;9.85;52.91;102711.72;10422023;28;20056;-73
2022/03/20 12:10:15;;;;;;;27.40;17.35;;;;;;;10.20;51.19;102704.72;10420497;28;20120;-74
2022/03/20 12:15:19;;;;;;;28.35;17.67;;;;;;;10.02;49.80;102688.44;10436058;28;20029;-73
2022/03/20 12:21:02;;;;;;;27.75;16.45;;;;;;;9.24;49.42;102693.25;10420225;28;20037;-73
2022/03/20 12:26:31;;;;;;;29.08;18.00;;;;;;;8.91;55.62;102694.56;10419562;28;20037;-73
2022/03/20 12:31:52;;;;;;;28.38;19.55;;;;;;;9.65;56.27;102696.56;10421748;28;20026;-72
2022/03/20 12:36:53;;;;;;;20.17;15.88;;;;;;;8.92;57.05;102698.97;10419985;28;20025;-73
2022/03/20 12:41:53;;;;;;;34.05;18.63;;;;;;;8.31;59.65;102690.06;10418630;28;20469;-73
2022/03/20 12:46:54;;;;;;;25.42;15.93;;;;;;;8.89;57.61;102678.50;10417787;28;20060;-72
2022/03/20 12:51:54;;;;;;;19.88;15.20;;;;;;;9.17;56.92;102671.34;10419497;28;20037;-72
2022/03/20 12:56:55;;;;;;;30.15;19.08;;;;;;;9.57;55.31;102659.41;10417075;28;20034;-73
2022/03/20 13:01:56;;;;;;;27.60;18.17;;;;;;;9.93;54.08;102667.69;10417049;28;20033;-71
2022/03/20 13:06:56;;;;;;;23.38;17.92;;;;;;;10.05;51.79;102652.09;10417716;28;20469;-72
2022/03/20 13:12:00;;;;;;;27.67;21.20;;;;;;;9.64;52.18;102659.72;10418206;28;20208;-72
2022/03/20 13:17:03;;;;;;;22.42;18.50;;;;;;;10.41;50.38;102640.34;10399475;28;20038;-72
2022/03/20 13:22:05;;;;;;;35.28;21.33;;;;;;;10.60;50.02;102635.81;10416914;28;20026;-73
2022/03/20 13:27:07;;;;;;;30.42;20.48;;;;;;;9.60;52.50;102634.78;10400712;28;20117;-73
2022/03/20 13:32:08;;;;;;;30.95;22.27;;;;;;;9.25;53.88;102641.75;10417395;28;20124;-73
2022/03/20 13:37:10;;;;;;;31.48;22.58;;;;;;;9.35;54.54;102628.22;10416052;28;20044;-76
2022/03/20 13:42:18;;;;;;;39.20;24.75;;;;;;;8.94;55.91;102630.28;10417437;28;20454;-73
2022/03/20 13:47:19;;;;;;;34.80;26.13;;;;;;;8.76;56.40;102622.06;10417763;28;20133;-72
2022/03/20 13:52:35;;;;;;;39.60;24.58;;;;;;;8.67;56.62;102625.59;10416335;28;20385;-73
2022/03/20 13:57:54;;;;;;;32.03;23.27;;;;;;;8.95;57.91;102631.13;10415909;28;20037;-71
2022/03/20 14:02:56;;;;;;;35.35;22.67;;;;;;;9.04;55.82;102631.13;10416269;28;20608;-72
2022/03/20 14:08:13;;;;;;;31.58;23.08;;;;;;;9.96;53.64;102627.66;10416088;28;20147;-73
2022/03/20 14:13:31;;;;;;;39.60;29.00;;;;;;;10.15;53.31;102615.00;10414913;28;20033;-73
2022/03/20 14:18:35;;;;;;;31.13;25.10;;;;;;;10.08;52.24;102613.88;10414816;28;20533;-71
2022/03/20 14:23:36;;;;;;;29.63;22.52;;;;;;;9.23;53.14;102623.97;10414177;28;20061;-72
2022/03/20 14:28:38;;;;;;;32.30;21.02;;;;;;;9.27;51.55;102623.53;10414695;28;20108;-72
2022/03/20 14:44:47;;;;;;;33.85;22.17;;;;;;;9.17;52.50;102627.25;10405429;28;20103;-72
2022/03/20 14:49:50;;;;;;;31.25;23.70;;;;;;;8.91;53.59;102625.16;10412111;28;20136;-73
2022/03/20 14:54:52;;;;;;;44.05;23.05;;;;;;;8.80;53.35;102625.31;10413667;28;20044;-74
2022/03/20 14:59:53;;;;;;;32.67;22.92;;;;;;;9.20;53.56;102613.44;10413638;28;20461;-73
2022/03/20 15:04:53;;;;;;;44.38;22.05;;;;;;;9.20;53.29;102617.00;10398623;28;20037;-74
2022/03/20 15:15:14;;;;;;;32.90;24.42;;;;;;;8.74;54.86;102615.97;10412724;28;20099;-75
2022/03/20 15:20:14;;;;;;;50.72;32.83;;;;;;;8.21;57.52;102623.56;10414141;28;20034;-74
2022/03/20 15:25:15;;;;;;;29.85;24.00;;;;;;;8.03;58.51;102620.69;10396231;28;20067;-73
2022/03/20 15:30:16;;;;;;;35.38;24.58;;;;;;;7.57;62.73;102631.03;10413414;28;20045;-74
2022/03/20 15:35:16;;;;;;;31.38;24.85;;;;;;;7.87;61.53;102626.59;10414452;28;20179;-74
2022/03/20 15:40:17;;;;;;;33.55;24.45;;;;;;;7.87;62.04;102629.31;10414539;28;20041;-73
2022/03/20 15:45:17;;;;;;;34.83;23.55;;;;;;;8.00;62.28;102629.06;10413822;28;20140;-74
2022/03/20 15:50:18;;;;;;;35.28;25.10;;;;;;;8.14;63.98;102620.59;10412015;28;20067;-74
2022/03/20 15:55:19;;;;;;;31.88;21.98;;;;;;;8.46;63.54;102627.63;10417834;28;20116;-73
2022/03/20 16:00:19;;;;;;;34.80;23.55;;;;;;;8.90;63.17;102628.84;10415717;28;20527;-72
2022/03/20 16:05:20;;;;;;;28.45;22.67;;;;;;;9.04;62.25;102636.53;10420685;28;20063;-74
2022/03/20 16:10:20;;;;;;;33.78;23.58;;;;;;;8.75;62.62;102665.44;10420553;28;20485;-74
2022/03/20 16:15:20;;;;;;;29.90;23.30;;;;;;;7.17;71.28;102691.09;10421635;28;20056;-73
2022/03/20 16:20:21;;;;;;;19.80;17.58;;;;;;;6.33;78.08;102697.31;10421087;28;20029;-76
2022/03/20 16:30:41;;;;;;;24.60;15.93;;;;;;;5.68;83.89;102689.03;10419037;28;20415;-75
2022/03/20 16:35:42;;;;;;;29.30;24.05;;;;;;;5.40;85.00;102687.66;10419014;28;20037;-75
2022/03/20 16:40:42;;;;;;;42.75;27.92;;;;;;;5.17;86.33;102680.50;10420092;28;20080;-75
2022/03/20 16:45:46;;;;;;;37.10;28.08;;;;;;;5.20;84.41;102681.16;10417947;28;20049;-74
2022/03/20 16:50:47;;;;;;;52.75;38.05;;;;;;;5.19;85.03;102684.78;10420022;28;20068;-74
2022/03/20 16:55:48;;;;;;;47.38;35.42;;;;;;;5.07;88.17;102700.03;10434600;28;20033;-75
2022/03/20 17:00:49;;;;;;;55.08;39.38;;;;;;;5.15;88.30;102702.13;10434098;28;20037;-75
2022/03/20 17:05:49;;;;;;;92.80;56.42;;;;;;;5.07;87.29;102708.09;10417947;28;20033;-75
2022/03/20 17:10:50;;;;;;;56.80;44.30;;;;;;;4.95;88.53;102708.19;10418164;28;20041;-75
2022/03/20 17:15:51;;;;;;;56.45;42.03;;;;;;;5.01;88.70;102715.72;10418051;28;20461;-74
2022/03/20 17:20:51;;;;;;;45.67;40.72;;;;;;;5.11;86.12;102714.09;10417731;28;20038;-74
2022/03/20 17:25:53;;;;;;;63.10;40.47;;;;;;;5.21;84.67;102717.78;10418198;28;20033;-74
2022/03/20 17:30:53;;;;;;;50.95;39.60;;;;;;;5.16;83.80;102730.69;10419557;28;20049;-74
2022/03/20 17:35:53;;;;;;;62.88;41.88;;;;;;;5.12;85.27;102739.94;10416469;28;20488;-75
2022/03/20 17:40:54;;;;;;;48.28;37.35;;;;;;;5.19;82.70;102749.25;10384639;28;20065;-75
2022/03/20 17:45:56;;;;;;;53.28;37.95;;;;;;;5.12;82.67;102750.69;10417672;28;20374;-75
2022/03/20 17:50:58;;;;;;;58.05;42.20;;;;;;;4.96;81.08;102752.84;10416039;28;20046;-74
2022/03/20 17:55:59;;;;;;;59.22;43.95;;;;;;;4.79;81.51;102740.69;10416023;28;20503;-75
2022/03/20 18:00:59;;;;;;;62.55;41.83;;;;;;;4.73;80.82;102759.91;10416405;28;20032;-74
2022/03/20 18:11:18;;;;;;;59.30;42.28;;;;;;;4.53;81.65;102767.63;10421121;28;20034;-74
2022/03/20 18:16:21;;;;;;;63.92;44.50;;;;;;;4.53;81.00;102777.47;10417784;28;20033;-74
2022/03/20 18:21:23;;;;;;;71.80;46.85;;;;;;;4.41;80.57;102780.09;10414714;28;20037;-75
2022/03/20 18:26:23;;;;;;;66.85;46.72;;;;;;;4.33;80.92;102789.66;10414579;28;20064;-74
2022/03/20 18:31:24;;;;;;;72.00;51.70;;;;;;;4.32;80.86;102793.31;10415846;28;20091;-75
2022/03/20 18:36:25;;;;;;;63.38;48.75;;;;;;;4.33;82.02;102817.31;10415581;28;20470;-74
2022/03/20 18:41:25;;;;;;;76.53;48.00;;;;;;;4.24;82.94;102815.28;10414793;28;20037;-74
2022/03/20 18:46:25;;;;;;;69.20;45.70;;;;;;;4.18;84.69;102821.97;10415192;28;20076;-74
2022/03/20 18:51:26;;;;;;;70.65;50.97;;;;;;;4.16;88.03;102829.25;10415092;28;20049;-74
2022/03/20 18:56:26;;;;;;;65.38;45.72;;;;;;;4.09;90.73;102833.34;10415111;28;20029;-74
2022/03/20 19:01:28;;;;;;;66.55;47.22;;;;;;;4.07;89.63;102829.91;10415719;28;20032;-74
2022/03/20 19:06:28;;;;;;;59.03;45.53;;;;;;;4.14;88.84;102839.22;10415394;28;20045;-74
2022/03/20 19:11:31;;;;;;;73.53;45.45;;;;;;;4.05;87.87;102845.25;10413990;28;20116;-75
2022/03/20 19:16:32;;;;;;;65.65;47.08;;;;;;;4.06;86.74;102838.91;10415619;28;20045;-74
2022/03/20 19:21:34;;;;;;;64.45;46.15;;;;;;;3.96;85.53;102836.00;10414895;28;20069;-75
2022/03/20 19:26:35;;;;;;;63.80;45.25;;;;;;;3.88;84.89;102841.03;10413737;28;20033;-75
2022/03/20 19:31:36;;;;;;;69.55;43.33;;;;;;;3.87;85.73;102843.84;10414382;28;20121;-74
2022/03/20 19:41:55;;;;;;;76.10;45.80;;;;;;;3.78;82.67;102844.47;10421542;28;20465;-74
2022/03/20 19:46:56;;;;;;;72.60;44.55;;;;;;;3.62;81.79;102853.56;10421994;28;20053;-74
2022/03/20 19:51:56;;;;;;;67.30;44.88;;;;;;;3.59;82.80;102863.63;10421900;28;20029;-75
2022/03/20 19:56:57;;;;;;;63.95;45.35;;;;;;;3.57;87.69;102855.66;10421513;28;20060;-74
2022/03/20 20:01:57;;;;;;;63.28;44.65;;;;;;;3.57;86.41;102854.81;10421425;28;20121;-74
2022/03/20 20:07:00;;;;;;;67.70;48.28;;;;;;;3.59;89.30;102855.59;10422968;28;20033;-75
2022/03/20 20:12:00;;;;;;;68.57;46.53;;;;;;;3.60;89.25;102862.66;10420578;28;20089;-74
2022/03/20 20:17:01;;;;;;;65.43;46.10;;;;;;;3.56;90.60;102863.81;10419613;28;20044;-73
2022/03/20 20:22:02;;;;;;;57.75;43.13;;;;;;;3.58;92.22;102876.16;10421048;28;20109;-74
2022/03/20 20:27:03;;;;;;;62.88;46.05;;;;;;;3.56;93.36;102863.81;10421155;28;20033;-75
2022/03/20 20:32:04;;;;;;;70.50;48.63;;;;;;;3.58;93.45;102864.59;10423191;28;20044;-75
2022/03/20 20:37:05;;;;;;;66.45;47.35;;;;;;;3.57;93.16;102869.06;10421036;28;20380;-74
2022/03/20 20:42:05;;;;;;;58.47;44.88;;;;;;;3.58;92.66;102875.31;10424055;28;20116;-75
2022/03/20 20:47:06;;;;;;;59.60;46.45;;;;;;;3.57;90.31;102866.38;10419616;28;20065;-75
2022/03/20 20:52:06;;;;;;;67.68;46.53;;;;;;;3.52;88.84;102873.88;10418230;28;20490;-74
2022/03/20 20:57:07;;;;;;;64.20;44.00;;;;;;;3.43;87.84;102871.81;10419258;28;20037;-74
2022/03/20 21:02:08;;;;;;;63.08;43.05;;;;;;;3.32;88.31;102848.44;10417932;28;20116;-74
2022/03/20 21:12:29;;;;;;;60.90;46.13;;;;;;;3.23;87.04;102857.94;10418175;28;20045;-74
2022/03/20 21:17:29;;;;;;;67.57;47.10;;;;;;;3.10;86.02;102856.19;10433544;28;20155;-74
2022/03/20 21:22:30;;;;;;;58.70;42.85;;;;;;;2.95;84.98;102863.38;10417376;28;20143;-73
2022/03/20 21:27:31;;;;;;;67.97;46.30;;;;;;;2.87;84.71;102863.00;10417936;28;20469;-74
2022/03/20 21:32:31;;;;;;;71.43;46.58;;;;;;;2.79;84.10;102880.41;10417656;28;20091;-75
2022/03/20 21:37:32;;;;;;;68.72;47.85;;;;;;;2.79;87.03;102880.41;10417851;28;20061;-73
2022/03/20 21:42:32;;;;;;;75.38;46.95;;;;;;;2.91;91.41;102880.59;10416781;28;20033;-73
2022/03/20 21:47:32;;;;;;;75.85;49.55;;;;;;;2.99;91.82;102887.16;10416665;28;20060;-73
2022/03/20 21:52:36;;;;;;;63.70;45.20;;;;;;;3.00;89.25;102883.53;10416381;28;20041;-74
2022/03/20 21:57:36;;;;;;;75.78;49.03;;;;;;;2.92;88.28;102887.66;10399610;28;20033;-74
2022/03/20 22:02:36;;;;;;;72.32;49.35;;;;;;;2.85;89.38;102897.91;10400628;28;20112;-74
2022/03/20 22:07:37;;;;;;;70.13;47.42;;;;;;;2.91;91.45;102902.88;10417308;28;20473;-74
2022/03/20 22:12:37;;;;;;;67.97;47.30;;;;;;;2.87;90.22;102900.47;10415438;28;20072;-74
2022/03/20 22:17:38;;;;;;;66.45;46.03;;;;;;;2.86;91.04;102894.25;10415994;28;20049;-73
2022/03/20 22:22:38;;;;;;;68.90;44.70;;;;;;;2.83;91.50;102901.63;10417081;28;20044;-73
2022/03/20 22:27:42;;;;;;;68.95;44.50;;;;;;;2.82;95.34;102894.56;10416458;28;20444;-74
2022/03/20 22:32:42;;;;;;;69.35;44.05;;;;;;;2.89;94.71;102903.91;10399994;28;20041;-73
2022/03/20 22:37:42;;;;;;;67.95;46.72;;;;;;;2.89;94.42;102899.41;10398660;28;20040;-74
2022/03/20 22:42:47;;;;;;;66.78;45.45;;;;;;;2.86;93.02;102896.94;10415750;28;20033;-74
2022/03/20 22:47:48;;;;;;;67.78;44.47;;;;;;;2.81;93.87;102899.06;10414002;28;20068;-76
2022/03/20 22:52:52;;;;;;;71.88;49.47;;;;;;;2.85;93.62;102897.91;10414832;28;20039;-74
2022/03/20 22:57:53;;;;;;;67.07;44.67;;;;;;;2.85;92.37;102905.94;10414124;28;20033;-75
2022/03/20 23:02:57;;;;;;;83.82;50.05;;;;;;;2.80;92.92;102906.22;10415050;28;20117;-74
2022/03/20 23:07:58;;;;;;;71.55;48.15;;;;;;;2.76;91.06;102901.16;10398090;28;20037;-74
2022/03/20 23:12:58;;;;;;;66.82;49.58;;;;;;;2.71;91.91;102900.59;10417538;28;20029;-74
2022/03/20 23:17:59;;;;;;;62.95;46.10;;;;;;;2.72;92.48;102913.03;10423346;28;20026;-75
2022/03/20 23:22:59;;;;;;;70.35;50.03;;;;;;;2.74;91.90;102901.28;10422186;28;20488;-73
2022/03/20 23:28:00;;;;;;;62.42;47.17;;;;;;;2.70;91.04;102913.09;10422345;28;20061;-74
2022/03/20 23:33:06;;;;;;;64.55;45.72;;;;;;;2.66;91.99;102916.94;10422640;28;20033;-75
2022/03/20 23:38:08;;;;;;;65.47;47.92;;;;;;;2.65;89.83;102911.66;10422765;28;20041;-74
2022/03/20 23:43:15;;;;;;;73.20;51.05;;;;;;;2.63;90.98;102918.94;10421890;28;20087;-73
2022/03/20 23:48:16;;;;;;;71.85;47.97;;;;;;;2.49;89.96;102918.00;10423444;28;20053;-74
2022/03/20 23:53:16;;;;;;;69.50;48.30;;;;;;;2.59;89.92;102912.94;10437435;28;20519;-74
2022/03/20 23:58:17;;;;;;;72.28;48.05;;;;;;;2.48;88.29;102928.78;10421885;28;20152;-74
